sensor_id;sensor_type;location;lat;lon;timestamp;pressure;altitude;pressure_sealevel;temperature;humidity
62978;BME280;49073;42.352;23.808;2022-10-23T00:00:18;95112.91;;;8.45;78.98
62978;BME280;49073;42.352;23.808;2022-10-23T00:03:19;95107.06;;;8.40;79.55
62978;BME280;49073;42.352;23.808;2022-10-23T00:06:20;95106.84;;;8.45;80.15
62978;BME280;49073;42.352;23.808;2022-10-23T00:09:23;95100.94;;;8.73;80.19
62978;BME280;49073;42.352;23.808;2022-10-23T00:12:24;95108.03;;;9.31;78.38
62978;BME280;49073;42.352;23.808;2022-10-23T00:15:27;95099.66;;;10.11;74.87
62978;BME280;49073;42.352;23.808;2022-10-23T00:18:27;95097.66;;;10.65;71.82
62978;BME280;49073;42.352;23.808;2022-10-23T00:21:28;95097.75;;;11.00;69.72
62978;BME280;49073;42.352;23.808;2022-10-23T00:24:29;95107.25;;;11.17;68.84
62978;BME280;49073;42.352;23.808;2022-10-23T00:27:29;95103.28;;;11.43;67.29
62978;BME280;49073;42.352;23.808;2022-10-23T00:30:30;95098.41;;;11.65;66.31
62978;BME280;49073;42.352;23.808;2022-10-23T00:33:31;95097.84;;;11.75;65.62
62978;BME280;49073;42.352;23.808;2022-10-23T00:36:32;95100.47;;;11.91;65.07
62978;BME280;49073;42.352;23.808;2022-10-23T00:39:33;95099.97;;;11.86;65.47
62978;BME280;49073;42.352;23.808;2022-10-23T00:42:34;95096.66;;;11.92;64.99
62978;BME280;49073;42.352;23.808;2022-10-23T00:45:34;95094.94;;;12.20;63.79
62978;BME280;49073;42.352;23.808;2022-10-23T00:48:35;95113.34;;;12.25;63.34
62978;BME280;49073;42.352;23.808;2022-10-23T00:51:47;95093.38;;;12.19;63.64
62978;BME280;49073;42.352;23.808;2022-10-23T00:54:48;95096.56;;;12.25;63.00
62978;BME280;49073;42.352;23.808;2022-10-23T00:57:50;95096.47;;;12.41;62.38
62978;BME280;49073;42.352;23.808;2022-10-23T01:00:53;95093.22;;;12.51;62.18
62978;BME280;49073;42.352;23.808;2022-10-23T01:03:54;95082.88;;;12.49;62.08
62978;BME280;49073;42.352;23.808;2022-10-23T01:10:33;95082.97;;;12.33;62.86
62978;BME280;49073;42.352;23.808;2022-10-23T01:32:46;95088.03;;;13.08;58.59
62978;BME280;49073;42.352;23.808;2022-10-23T01:35:59;95085.13;;;13.17;58.20
62978;BME280;49073;42.352;23.808;2022-10-23T01:39:11;95092.63;;;13.08;58.41
62978;BME280;49073;42.352;23.808;2022-10-23T01:42:18;95089.22;;;13.11;58.13
62978;BME280;49073;42.352;23.808;2022-10-23T01:45:29;95087.31;;;13.12;58.30
62978;BME280;49073;42.352;23.808;2022-10-23T01:48:33;95089.28;;;13.15;57.56
62978;BME280;49073;42.352;23.808;2022-10-23T01:51:35;95094.44;;;13.27;57.13
62978;BME280;49073;42.352;23.808;2022-10-23T01:54:40;95103.72;;;13.33;56.88
62978;BME280;49073;42.352;23.808;2022-10-23T01:57:43;95101.50;;;13.66;55.12
62978;BME280;49073;42.352;23.808;2022-10-23T02:00:45;95102.97;;;13.90;54.33
62978;BME280;49073;42.352;23.808;2022-10-23T02:03:50;95094.53;;;13.88;53.80
62978;BME280;49073;42.352;23.808;2022-10-23T02:06:52;95110.63;;;13.92;53.68
62978;BME280;49073;42.352;23.808;2022-10-23T02:09:53;95113.88;;;13.78;54.35
62978;BME280;49073;42.352;23.808;2022-10-23T02:16:43;95113.44;;;13.72;54.42
62978;BME280;49073;42.352;23.808;2022-10-23T02:19:51;95113.69;;;13.90;53.11
62978;BME280;49073;42.352;23.808;2022-10-23T02:23:33;95122.22;;;14.00;52.70
62978;BME280;49073;42.352;23.808;2022-10-23T02:26:40;95110.13;;;13.82;52.44
62978;BME280;49073;42.352;23.808;2022-10-23T02:29:46;95114.53;;;13.98;51.38
62978;BME280;49073;42.352;23.808;2022-10-23T02:32:50;95129.63;;;13.79;52.93
62978;BME280;49073;42.352;23.808;2022-10-23T02:35:52;95118.31;;;13.63;53.92
62978;BME280;49073;42.352;23.808;2022-10-23T02:38:52;95123.09;;;13.50;56.20
62978;BME280;49073;42.352;23.808;2022-10-23T02:45:29;95135.28;;;13.74;52.15
62978;BME280;49073;42.352;23.808;2022-10-23T02:48:42;95133.59;;;13.93;51.94
62978;BME280;49073;42.352;23.808;2022-10-23T02:59:05;95128.19;;;14.54;48.25
62978;BME280;49073;42.352;23.808;2022-10-23T03:05:15;95152.44;;;15.03;46.87
62978;BME280;49073;42.352;23.808;2022-10-23T03:08:17;95165.13;;;15.06;47.37
62978;BME280;49073;42.352;23.808;2022-10-23T03:11:18;95174.66;;;15.00;47.66
62978;BME280;49073;42.352;23.808;2022-10-23T03:14:19;95162.38;;;14.98;47.81
62978;BME280;49073;42.352;23.808;2022-10-23T03:17:19;95171.22;;;15.03;47.55
62978;BME280;49073;42.352;23.808;2022-10-23T03:20:20;95160.84;;;15.01;47.53
62978;BME280;49073;42.352;23.808;2022-10-23T03:23:20;95167.81;;;15.06;47.07
62978;BME280;49073;42.352;23.808;2022-10-23T03:26:22;95177.38;;;15.03;46.99
62978;BME280;49073;42.352;23.808;2022-10-23T03:29:24;95178.19;;;15.07;46.63
62978;BME280;49073;42.352;23.808;2022-10-23T03:32:24;95180.78;;;15.00;47.38
62978;BME280;49073;42.352;23.808;2022-10-23T03:35:25;95178.81;;;14.93;47.72
62978;BME280;49073;42.352;23.808;2022-10-23T03:38:27;95183.84;;;14.98;46.90
62978;BME280;49073;42.352;23.808;2022-10-23T03:41:27;95191.50;;;14.96;46.79
62978;BME280;49073;42.352;23.808;2022-10-23T03:44:28;95189.22;;;15.02;45.68
62978;BME280;49073;42.352;23.808;2022-10-23T03:47:30;95201.72;;;15.25;44.91
62978;BME280;49073;42.352;23.808;2022-10-23T03:50:32;95204.75;;;15.20;45.51
62978;BME280;49073;42.352;23.808;2022-10-23T03:53:33;95210.22;;;14.89;47.58
62978;BME280;49073;42.352;23.808;2022-10-23T03:56:34;95205.19;;;14.88;46.22
62978;BME280;49073;42.352;23.808;2022-10-23T03:59:34;95212.47;;;15.25;44.39
62978;BME280;49073;42.352;23.808;2022-10-23T04:02:35;95209.94;;;15.43;43.50
62978;BME280;49073;42.352;23.808;2022-10-23T04:05:35;95211.16;;;15.53;43.11
62978;BME280;49073;42.352;23.808;2022-10-23T04:08:37;95217.19;;;15.39;43.75
62978;BME280;49073;42.352;23.808;2022-10-23T04:11:38;95219.47;;;15.37;43.63
62978;BME280;49073;42.352;23.808;2022-10-23T04:14:38;95213.63;;;15.27;44.09
62978;BME280;49073;42.352;23.808;2022-10-23T04:17:39;95220.41;;;15.10;44.04
62978;BME280;49073;42.352;23.808;2022-10-23T04:20:39;95221.44;;;15.02;44.15
62978;BME280;49073;42.352;23.808;2022-10-23T04:23:40;95224.84;;;14.95;44.06
62978;BME280;49073;42.352;23.808;2022-10-23T04:26:41;95230.53;;;14.90;44.48
62978;BME280;49073;42.352;23.808;2022-10-23T04:29:41;95236.50;;;14.76;44.73
62978;BME280;49073;42.352;23.808;2022-10-23T04:32:42;95235.03;;;14.48;46.31
62978;BME280;49073;42.352;23.808;2022-10-23T04:35:43;95236.75;;;14.33;47.00
62978;BME280;49073;42.352;23.808;2022-10-23T04:38:44;95233.06;;;14.15;48.57
62978;BME280;49073;42.352;23.808;2022-10-23T04:41:44;95242.28;;;13.90;49.23
62978;BME280;49073;42.352;23.808;2022-10-23T04:44:45;95236.59;;;13.68;50.58
62978;BME280;49073;42.352;23.808;2022-10-23T04:47:45;95230.19;;;13.50;50.60
62978;BME280;49073;42.352;23.808;2022-10-23T04:50:58;95237.59;;;13.37;51.04
62978;BME280;49073;42.352;23.808;2022-10-23T04:53:58;95236.19;;;13.43;50.98
62978;BME280;49073;42.352;23.808;2022-10-23T04:56:59;95244.91;;;13.40;51.38
62978;BME280;49073;42.352;23.808;2022-10-23T04:59:59;95240.56;;;13.32;51.92
62978;BME280;49073;42.352;23.808;2022-10-23T05:03:00;95243.09;;;13.01;51.38
62978;BME280;49073;42.352;23.808;2022-10-23T05:06:01;95250.31;;;13.20;51.05
62978;BME280;49073;42.352;23.808;2022-10-23T05:09:03;95257.09;;;13.14;51.93
62978;BME280;49073;42.352;23.808;2022-10-23T05:12:03;95257.63;;;13.23;50.76
62978;BME280;49073;42.352;23.808;2022-10-23T05:15:05;95259.88;;;13.21;51.52
62978;BME280;49073;42.352;23.808;2022-10-23T05:18:12;95257.34;;;13.29;50.26
62978;BME280;49073;42.352;23.808;2022-10-23T05:21:21;95259.78;;;13.37;50.78
62978;BME280;49073;42.352;23.808;2022-10-23T05:24:23;95272.03;;;13.38;51.45
62978;BME280;49073;42.352;23.808;2022-10-23T05:27:24;95266.28;;;13.36;52.27
62978;BME280;49073;42.352;23.808;2022-10-23T05:30:24;95270.31;;;13.27;52.04
62978;BME280;49073;42.352;23.808;2022-10-23T05:33:26;95268.75;;;13.26;51.50
62978;BME280;49073;42.352;23.808;2022-10-23T05:36:27;95278.38;;;13.50;51.67
62978;BME280;49073;42.352;23.808;2022-10-23T05:39:27;95279.06;;;13.93;48.45
62978;BME280;49073;42.352;23.808;2022-10-23T05:42:28;95289.63;;;14.36;47.15
62978;BME280;49073;42.352;23.808;2022-10-23T05:45:29;95289.97;;;14.62;46.34
62978;BME280;49073;42.352;23.808;2022-10-23T05:48:29;95291.38;;;14.79;46.20
62978;BME280;49073;42.352;23.808;2022-10-23T05:51:30;95299.13;;;14.88;46.25
62978;BME280;49073;42.352;23.808;2022-10-23T05:54:30;95301.28;;;15.09;45.45
62978;BME280;49073;42.352;23.808;2022-10-23T05:57:32;95308.34;;;15.24;46.78
62978;BME280;49073;42.352;23.808;2022-10-23T06:00:32;95309.72;;;15.49;48.28
62978;BME280;49073;42.352;23.808;2022-10-23T06:03:33;95310.19;;;15.54;49.75
62978;BME280;49073;42.352;23.808;2022-10-23T06:06:34;95307.25;;;15.70;49.90
62978;BME280;49073;42.352;23.808;2022-10-23T06:09:35;95303.03;;;15.73;50.26
62978;BME280;49073;42.352;23.808;2022-10-23T06:12:36;95312.72;;;15.81;50.20
62978;BME280;49073;42.352;23.808;2022-10-23T06:15:36;95319.00;;;15.93;50.99
62978;BME280;49073;42.352;23.808;2022-10-23T06:18:37;95313.63;;;15.93;51.10
62978;BME280;49073;42.352;23.808;2022-10-23T06:21:38;95325.56;;;15.99;51.68
62978;BME280;49073;42.352;23.808;2022-10-23T06:24:39;95326.75;;;16.05;51.63
62978;BME280;49073;42.352;23.808;2022-10-23T06:27:40;95326.75;;;16.05;51.96
62978;BME280;49073;42.352;23.808;2022-10-23T06:30:40;95328.38;;;16.13;51.84
62978;BME280;49073;42.352;23.808;2022-10-23T06:33:41;95335.34;;;16.22;51.26
62978;BME280;49073;42.352;23.808;2022-10-23T06:36:41;95343.44;;;16.29;51.01
62978;BME280;49073;42.352;23.808;2022-10-23T06:39:42;95343.88;;;16.38;50.84
62978;BME280;49073;42.352;23.808;2022-10-23T06:42:43;95349.31;;;16.46;50.76
62978;BME280;49073;42.352;23.808;2022-10-23T06:45:43;95342.91;;;16.61;50.38
62978;BME280;49073;42.352;23.808;2022-10-23T06:48:45;95343.31;;;16.74;50.00
62978;BME280;49073;42.352;23.808;2022-10-23T06:51:46;95340.41;;;16.97;49.48
62978;BME280;49073;42.352;23.808;2022-10-23T06:54:46;95355.47;;;17.09;49.43
62978;BME280;49073;42.352;23.808;2022-10-23T06:57:47;95362.03;;;17.12;49.44
62978;BME280;49073;42.352;23.808;2022-10-23T07:00:48;95365.88;;;17.18;49.87
62978;BME280;49073;42.352;23.808;2022-10-23T07:03:48;95369.38;;;17.22;50.14
62978;BME280;49073;42.352;23.808;2022-10-23T07:06:49;95370.59;;;17.47;49.96
62978;BME280;49073;42.352;23.808;2022-10-23T07:09:49;95366.75;;;17.40;50.61
62978;BME280;49073;42.352;23.808;2022-10-23T07:12:50;95369.44;;;17.44;51.32
62978;BME280;49073;42.352;23.808;2022-10-23T07:15:50;95362.13;;;17.55;50.72
62978;BME280;49073;42.352;23.808;2022-10-23T07:18:56;95363.31;;;17.65;50.80
62978;BME280;49073;42.352;23.808;2022-10-23T07:22:00;95361.78;;;17.64;51.38
62978;BME280;49073;42.352;23.808;2022-10-23T07:25:01;95370.66;;;17.68;50.67
62978;BME280;49073;42.352;23.808;2022-10-23T07:28:05;95374.91;;;17.73;50.72
62978;BME280;49073;42.352;23.808;2022-10-23T07:31:06;95379.91;;;17.78;50.81
62978;BME280;49073;42.352;23.808;2022-10-23T07:34:09;95386.06;;;17.75;51.37
62978;BME280;49073;42.352;23.808;2022-10-23T07:37:09;95384.16;;;17.90;50.91
62978;BME280;49073;42.352;23.808;2022-10-23T07:40:11;95399.97;;;17.92;51.49
62978;BME280;49073;42.352;23.808;2022-10-23T07:43:12;95388.47;;;18.20;50.94
62978;BME280;49073;42.352;23.808;2022-10-23T07:46:12;95393.84;;;18.42;50.63
62978;BME280;49073;42.352;23.808;2022-10-23T07:49:13;95391.16;;;18.31;50.95
62978;BME280;49073;42.352;23.808;2022-10-23T07:52:14;95378.03;;;18.58;50.67
62978;BME280;49073;42.352;23.808;2022-10-23T07:55:14;95397.31;;;18.57;50.41
62978;BME280;49073;42.352;23.808;2022-10-23T07:58:15;95398.84;;;18.65;50.61
62978;BME280;49073;42.352;23.808;2022-10-23T08:01:19;95395.38;;;18.72;50.65
62978;BME280;49073;42.352;23.808;2022-10-23T08:04:20;95390.31;;;18.81;49.89
62978;BME280;49073;42.352;23.808;2022-10-23T08:07:20;95395.72;;;18.92;49.02
62978;BME280;49073;42.352;23.808;2022-10-23T08:10:20;95382.56;;;19.09;48.91
62978;BME280;49073;42.352;23.808;2022-10-23T08:13:21;95382.13;;;19.21;47.64
62978;BME280;49073;42.352;23.808;2022-10-23T08:16:23;95394.44;;;19.29;48.27
62978;BME280;49073;42.352;23.808;2022-10-23T08:19:23;95392.47;;;19.41;47.83
62978;BME280;49073;42.352;23.808;2022-10-23T08:22:24;95383.97;;;19.42;47.06
62978;BME280;49073;42.352;23.808;2022-10-23T08:25:24;95381.19;;;19.60;47.33
62978;BME280;49073;42.352;23.808;2022-10-23T08:28:26;95386.13;;;19.73;46.14
62978;BME280;49073;42.352;23.808;2022-10-23T08:31:27;95383.34;;;19.87;45.56
62978;BME280;49073;42.352;23.808;2022-10-23T08:34:27;95385.22;;;20.01;45.71
62978;BME280;49073;42.352;23.808;2022-10-23T08:37:28;95387.13;;;20.04;45.64
62978;BME280;49073;42.352;23.808;2022-10-23T08:40:28;95394.81;;;20.10;44.91
62978;BME280;49073;42.352;23.808;2022-10-23T08:43:35;95380.84;;;20.18;44.64
62978;BME280;49073;42.352;23.808;2022-10-23T08:46:40;95382.25;;;20.34;43.69
62978;BME280;49073;42.352;23.808;2022-10-23T08:49:49;95393.81;;;20.38;43.38
62978;BME280;49073;42.352;23.808;2022-10-23T08:53:02;95388.75;;;20.44;43.00
62978;BME280;49073;42.352;23.808;2022-10-23T08:56:21;95392.09;;;20.59;43.33
62978;BME280;49073;42.352;23.808;2022-10-23T08:59:28;95390.47;;;20.69;42.41
62978;BME280;49073;42.352;23.808;2022-10-23T09:02:40;95396.28;;;20.67;42.69
62978;BME280;49073;42.352;23.808;2022-10-23T09:05:59;95388.03;;;20.78;42.38
62978;BME280;49073;42.352;23.808;2022-10-23T09:12:10;95379.66;;;21.07;40.99
62978;BME280;49073;42.352;23.808;2022-10-23T09:15:29;95378.28;;;21.26;40.95
62978;BME280;49073;42.352;23.808;2022-10-23T09:18:34;95393.94;;;21.42;41.43
62978;BME280;49073;42.352;23.808;2022-10-23T09:21:35;95386.47;;;21.19;41.23
62978;BME280;49073;42.352;23.808;2022-10-23T09:24:35;95376.09;;;21.14;41.26
62978;BME280;49073;42.352;23.808;2022-10-23T09:27:36;95386.41;;;21.26;41.62
62978;BME280;49073;42.352;23.808;2022-10-23T09:30:39;95389.50;;;21.28;41.22
62978;BME280;49073;42.352;23.808;2022-10-23T09:33:40;95378.69;;;20.86;42.01
62978;BME280;49073;42.352;23.808;2022-10-23T09:36:48;95373.81;;;21.08;41.88
62978;BME280;49073;42.352;23.808;2022-10-23T09:40:01;95376.59;;;21.36;40.91
62978;BME280;49073;42.352;23.808;2022-10-23T09:43:13;95377.03;;;21.65;40.84
62978;BME280;49073;42.352;23.808;2022-10-23T09:46:14;95379.06;;;21.58;40.27
62978;BME280;49073;42.352;23.808;2022-10-23T09:52:34;95351.59;;;21.52;40.30
62978;BME280;49073;42.352;23.808;2022-10-23T09:55:35;95352.25;;;21.63;39.87
62978;BME280;49073;42.352;23.808;2022-10-23T09:58:39;95346.72;;;21.71;39.61
62978;BME280;49073;42.352;23.808;2022-10-23T10:01:59;95351.41;;;21.70;39.91
62978;BME280;49073;42.352;23.808;2022-10-23T10:05:10;95355.94;;;21.77;39.96
62978;BME280;49073;42.352;23.808;2022-10-23T10:17:34;95349.97;;;21.89;39.13
62978;BME280;49073;42.352;23.808;2022-10-23T10:24:24;95334.47;;;22.14;37.66
62978;BME280;49073;42.352;23.808;2022-10-23T10:30:51;95323.66;;;22.10;37.41
62978;BME280;49073;42.352;23.808;2022-10-23T10:34:27;95324.81;;;22.33;37.78
62978;BME280;49073;42.352;23.808;2022-10-23T10:41:35;95324.75;;;22.60;37.17
62978;BME280;49073;42.352;23.808;2022-10-23T10:51:35;95295.09;;;22.49;36.32
62978;BME280;49073;42.352;23.808;2022-10-23T10:58:02;95299.94;;;22.82;35.84
62978;BME280;49073;42.352;23.808;2022-10-23T11:01:16;95299.94;;;22.82;35.96
62978;BME280;49073;42.352;23.808;2022-10-23T11:07:58;95287.28;;;22.92;35.09
62978;BME280;49073;42.352;23.808;2022-10-23T11:11:15;95289.13;;;22.78;35.11
62978;BME280;49073;42.352;23.808;2022-10-23T11:14:20;95280.91;;;22.82;35.06
62978;BME280;49073;42.352;23.808;2022-10-23T11:17:24;95278.78;;;23.10;34.70
62978;BME280;49073;42.352;23.808;2022-10-23T11:30:21;95279.97;;;22.89;34.93
62978;BME280;49073;42.352;23.808;2022-10-23T11:33:50;95263.59;;;23.13;34.66
62978;BME280;49073;42.352;23.808;2022-10-23T11:36:55;95254.25;;;23.14;34.45
62978;BME280;49073;42.352;23.808;2022-10-23T11:43:07;95252.97;;;23.18;34.70
62978;BME280;49073;42.352;23.808;2022-10-23T11:46:35;95252.63;;;23.16;34.48
62978;BME280;49073;42.352;23.808;2022-10-23T11:49:37;95252.56;;;23.20;34.52
62978;BME280;49073;42.352;23.808;2022-10-23T11:52:57;95246.44;;;23.16;34.05
62978;BME280;49073;42.352;23.808;2022-10-23T11:59:26;95240.88;;;23.03;34.28
62978;BME280;49073;42.352;23.808;2022-10-23T12:02:34;95237.31;;;23.06;33.89
62978;BME280;49073;42.352;23.808;2022-10-23T12:05:38;95235.63;;;23.12;33.03
62978;BME280;49073;42.352;23.808;2022-10-23T12:08:41;95239.47;;;23.15;33.48
62978;BME280;49073;42.352;23.808;2022-10-23T12:11:46;95240.75;;;23.27;33.92
62978;BME280;49073;42.352;23.808;2022-10-23T12:14:48;95231.81;;;23.09;33.80
62978;BME280;49073;42.352;23.808;2022-10-23T12:17:50;95226.56;;;23.19;32.92
62978;BME280;49073;42.352;23.808;2022-10-23T12:20:56;95248.13;;;23.09;33.04
62978;BME280;49073;42.352;23.808;2022-10-23T12:27:18;95238.66;;;22.98;32.65
62978;BME280;49073;42.352;23.808;2022-10-23T12:30:48;95240.13;;;23.02;33.28
62978;BME280;49073;42.352;23.808;2022-10-23T12:34:00;95227.75;;;22.81;33.30
62978;BME280;49073;42.352;23.808;2022-10-23T12:37:21;95229.34;;;22.78;33.43
62978;BME280;49073;42.352;23.808;2022-10-23T12:40:27;95229.53;;;22.67;33.42
62978;BME280;49073;42.352;23.808;2022-10-23T12:43:33;95227.59;;;22.68;33.27
62978;BME280;49073;42.352;23.808;2022-10-23T12:46:39;95218.91;;;22.57;33.92
62978;BME280;49073;42.352;23.808;2022-10-23T12:49:47;95222.31;;;22.61;34.51
62978;BME280;49073;42.352;23.808;2022-10-23T12:56:03;95214.66;;;22.56;34.59
62978;BME280;49073;42.352;23.808;2022-10-23T12:59:15;95220.50;;;22.54;34.62
62978;BME280;49073;42.352;23.808;2022-10-23T13:02:29;95218.22;;;22.52;34.36
62978;BME280;49073;42.352;23.808;2022-10-23T13:05:31;95215.84;;;22.55;34.95
62978;BME280;49073;42.352;23.808;2022-10-23T13:08:35;95217.53;;;22.48;34.68
62978;BME280;49073;42.352;23.808;2022-10-23T13:11:38;95219.06;;;22.49;34.56
62978;BME280;49073;42.352;23.808;2022-10-23T13:14:52;95216.09;;;22.40;35.03
62978;BME280;49073;42.352;23.808;2022-10-23T13:20:57;95215.66;;;22.21;34.92
62978;BME280;49073;42.352;23.808;2022-10-23T13:23:58;95225.09;;;22.13;35.17
62978;BME280;49073;42.352;23.808;2022-10-23T13:26:59;95235.28;;;22.09;35.25
62978;BME280;49073;42.352;23.808;2022-10-23T13:29:59;95224.91;;;22.04;35.89
62978;BME280;49073;42.352;23.808;2022-10-23T13:33:01;95226.34;;;22.08;36.73
62978;BME280;49073;42.352;23.808;2022-10-23T13:39:21;95221.41;;;22.03;36.25
62978;BME280;49073;42.352;23.808;2022-10-23T13:42:22;95223.41;;;21.99;35.95
62978;BME280;49073;42.352;23.808;2022-10-23T13:45:24;95229.13;;;22.05;36.13
62978;BME280;49073;42.352;23.808;2022-10-23T13:48:26;95223.06;;;21.97;35.86
62978;BME280;49073;42.352;23.808;2022-10-23T13:51:28;95227.97;;;22.06;36.34
62978;BME280;49073;42.352;23.808;2022-10-23T13:54:29;95221.03;;;22.01;35.80
62978;BME280;49073;42.352;23.808;2022-10-23T13:57:30;95230.31;;;22.04;36.51
62978;BME280;49073;42.352;23.808;2022-10-23T14:00:30;95221.72;;;21.85;37.51
62978;BME280;49073;42.352;23.808;2022-10-23T14:03:31;95209.44;;;21.77;37.38
62978;BME280;49073;42.352;23.808;2022-10-23T14:06:33;95215.06;;;21.66;37.59
62978;BME280;49073;42.352;23.808;2022-10-23T14:09:34;95227.22;;;21.54;37.81
62978;BME280;49073;42.352;23.808;2022-10-23T14:12:42;95226.56;;;21.46;38.13
62978;BME280;49073;42.352;23.808;2022-10-23T14:15:42;95227.38;;;21.43;37.95
62978;BME280;49073;42.352;23.808;2022-10-23T14:18:43;95221.00;;;21.30;38.38
62978;BME280;49073;42.352;23.808;2022-10-23T14:21:44;95206.94;;;21.11;38.51
62978;BME280;49073;42.352;23.808;2022-10-23T14:24:44;95217.47;;;21.05;38.08
62978;BME280;49073;42.352;23.808;2022-10-23T14:27:45;95221.50;;;20.93;38.70
62978;BME280;49073;42.352;23.808;2022-10-23T14:30:46;95215.50;;;20.78;39.03
62978;BME280;49073;42.352;23.808;2022-10-23T14:33:56;95222.09;;;20.74;38.64
62978;BME280;49073;42.352;23.808;2022-10-23T14:36:59;95222.97;;;20.67;39.04
62978;BME280;49073;42.352;23.808;2022-10-23T14:40:00;95228.09;;;20.58;39.00
62978;BME280;49073;42.352;23.808;2022-10-23T14:43:01;95228.25;;;20.43;39.72
62978;BME280;49073;42.352;23.808;2022-10-23T14:46:12;95233.41;;;20.30;40.33
62978;BME280;49073;42.352;23.808;2022-10-23T14:49:13;95231.16;;;20.25;40.70
62978;BME280;49073;42.352;23.808;2022-10-23T14:52:14;95232.41;;;20.17;40.47
62978;BME280;49073;42.352;23.808;2022-10-23T14:55:14;95237.16;;;20.05;41.20
62978;BME280;49073;42.352;23.808;2022-10-23T14:58:15;95242.22;;;20.00;41.19
62978;BME280;49073;42.352;23.808;2022-10-23T15:01:16;95239.97;;;19.87;41.39
62978;BME280;49073;42.352;23.808;2022-10-23T15:04:17;95244.34;;;19.77;41.47
62978;BME280;49073;42.352;23.808;2022-10-23T15:07:18;95245.22;;;19.63;41.94
62978;BME280;49073;42.352;23.808;2022-10-23T15:10:18;95252.13;;;19.68;42.33
62978;BME280;49073;42.352;23.808;2022-10-23T15:13:18;95248.84;;;19.42;42.94
62978;BME280;49073;42.352;23.808;2022-10-23T15:16:20;95255.50;;;19.23;43.05
62978;BME280;49073;42.352;23.808;2022-10-23T15:19:21;95262.91;;;19.12;43.80
62978;BME280;49073;42.352;23.808;2022-10-23T15:22:22;95264.16;;;18.82;44.61
62978;BME280;49073;42.352;23.808;2022-10-23T15:25:23;95273.13;;;18.68;45.23
62978;BME280;49073;42.352;23.808;2022-10-23T15:28:24;95272.44;;;18.38;45.92
62978;BME280;49073;42.352;23.808;2022-10-23T15:34:28;95260.88;;;17.40;48.09
62978;BME280;49073;42.352;23.808;2022-10-23T15:37:29;95276.69;;;17.56;48.03
62978;BME280;49073;42.352;23.808;2022-10-23T15:40:30;95277.44;;;17.45;47.77
62978;BME280;49073;42.352;23.808;2022-10-23T15:43:30;95286.69;;;17.44;48.20
62978;BME280;49073;42.352;23.808;2022-10-23T15:46:31;95284.34;;;17.28;49.08
62978;BME280;49073;42.352;23.808;2022-10-23T15:49:32;95287.75;;;17.07;49.06
62978;BME280;49073;42.352;23.808;2022-10-23T15:52:33;95292.66;;;16.91;49.43
62978;BME280;49073;42.352;23.808;2022-10-23T15:55:33;95293.81;;;16.93;49.16
62978;BME280;49073;42.352;23.808;2022-10-23T15:58:35;95288.69;;;16.59;50.04
62978;BME280;49073;42.352;23.808;2022-10-23T16:01:36;95297.16;;;16.61;50.13
62978;BME280;49073;42.352;23.808;2022-10-23T16:04:37;95308.19;;;16.45;50.44
62978;BME280;49073;42.352;23.808;2022-10-23T16:07:37;95319.69;;;16.38;50.48
62978;BME280;49073;42.352;23.808;2022-10-23T16:10:40;95317.25;;;16.19;50.71
62978;BME280;49073;42.352;23.808;2022-10-23T16:13:41;95320.69;;;16.16;50.95
62978;BME280;49073;42.352;23.808;2022-10-23T16:16:42;95327.19;;;16.11;50.34
62978;BME280;49073;42.352;23.808;2022-10-23T16:19:44;95337.47;;;15.98;51.55
62978;BME280;49073;42.352;23.808;2022-10-23T16:22:45;95342.78;;;15.91;51.45
62978;BME280;49073;42.352;23.808;2022-10-23T16:25:46;95343.78;;;15.79;52.10
62978;BME280;49073;42.352;23.808;2022-10-23T16:28:47;95341.06;;;15.71;51.75
62978;BME280;49073;42.352;23.808;2022-10-23T16:31:52;95344.16;;;15.36;53.52
62978;BME280;49073;42.352;23.808;2022-10-23T16:34:53;95343.63;;;15.23;53.96
62978;BME280;49073;42.352;23.808;2022-10-23T16:37:54;95347.81;;;15.20;54.53
62978;BME280;49073;42.352;23.808;2022-10-23T16:40:55;95339.41;;;15.25;54.63
62978;BME280;49073;42.352;23.808;2022-10-23T16:43:56;95340.03;;;15.11;55.62
62978;BME280;49073;42.352;23.808;2022-10-23T16:46:56;95343.66;;;15.26;55.46
62978;BME280;49073;42.352;23.808;2022-10-23T16:49:57;95328.78;;;15.36;55.05
62978;BME280;49073;42.352;23.808;2022-10-23T16:52:57;95349.25;;;15.48;54.54
62978;BME280;49073;42.352;23.808;2022-10-23T16:55:58;95346.66;;;15.55;54.67
62978;BME280;49073;42.352;23.808;2022-10-23T16:58:59;95342.81;;;15.56;54.57
62978;BME280;49073;42.352;23.808;2022-10-23T17:01:59;95341.28;;;15.59;54.19
62978;BME280;49073;42.352;23.808;2022-10-23T17:05:00;95346.19;;;15.50;54.45
62978;BME280;49073;42.352;23.808;2022-10-23T17:08:01;95339.06;;;15.65;54.17
62978;BME280;49073;42.352;23.808;2022-10-23T17:11:26;95344.72;;;15.94;52.83
62978;BME280;49073;42.352;23.808;2022-10-23T17:14:28;95337.53;;;16.05;52.23
62978;BME280;49073;42.352;23.808;2022-10-23T17:17:28;95348.31;;;16.12;52.36
62978;BME280;49073;42.352;23.808;2022-10-23T17:20:29;95342.56;;;16.10;52.54
62978;BME280;49073;42.352;23.808;2022-10-23T17:23:29;95346.78;;;16.11;52.40
62978;BME280;49073;42.352;23.808;2022-10-23T17:26:30;95348.28;;;16.09;52.55
62978;BME280;49073;42.352;23.808;2022-10-23T17:29:31;95351.66;;;15.98;52.72
62978;BME280;49073;42.352;23.808;2022-10-23T17:32:34;95349.31;;;15.93;53.03
62978;BME280;49073;42.352;23.808;2022-10-23T17:35:35;95358.16;;;15.94;52.67
62978;BME280;49073;42.352;23.808;2022-10-23T17:38:38;95357.97;;;15.76;52.56
62978;BME280;49073;42.352;23.808;2022-10-23T17:41:39;95359.28;;;15.51;53.87
62978;BME280;49073;42.352;23.808;2022-10-23T17:44:40;95365.25;;;15.37;53.58
62978;BME280;49073;42.352;23.808;2022-10-23T17:47:41;95368.88;;;15.18;54.20
62978;BME280;49073;42.352;23.808;2022-10-23T17:50:42;95366.38;;;14.72;54.95